Time;durP1;ratioP1;P1;durP2;ratioP2;P2;SDS_P1;SDS_P2;PMS_P1;PMS_P2;Temp;Humidity;BMP_temperature;BMP_pressure;BME280_temperature;BME280_humidity;BME280_pressure;Samples;Min_cycle;Max_cycle;Signal;HPM_P1;HPM_P2
2022/04/20 00:01:56;;;;;;;20.33;6.18;;;;;;;;;;4978333;28;20110;-68
2022/04/20 00:04:21;;;;;;;9.57;4.47;;;;;;;;;;4993031;28;20133;-68
2022/04/20 00:06:47;;;;;;;7.43;4.13;;;;;;;;;;4989640;28;20062;-68
2022/04/20 00:09:12;;;;;;;10.65;4.40;;;;;;;;;;4990518;28;20050;-68
2022/04/20 00:11:37;;;;;;;10.40;3.95;;;;;;;;;;4994688;28;20046;-67
2022/04/20 00:14:03;;;;;;;13.95;4.70;;;;;;;;;;4974299;28;20038;-68
2022/04/20 00:16:29;;;;;;;7.88;4.03;;;;;;;;;;4986912;28;20413;-67
2022/04/20 00:18:54;;;;;;;10.75;5.32;;;;;;;;;;5008621;28;20389;-68
2022/04/20 00:21:19;;;;;;;9.63;3.88;;;;;;;;;;4992062;28;20407;-68
2022/04/20 00:23:45;;;;;;;9.93;4.22;;;;;;;;;;4993562;28;20180;-67
2022/04/20 00:26:10;;;;;;;10.95;4.18;;;;;;;;;;4990218;28;20118;-68
2022/04/20 00:28:35;;;;;;;9.45;4.28;;;;;;;;;;4993079;28;20041;-68
2022/04/20 00:31:01;;;;;;;8.38;4.55;;;;;;;;;;4992552;28;20144;-67
2022/04/20 00:33:26;;;;;;;13.85;4.75;;;;;;;;;;4990864;28;20438;-68
2022/04/20 00:35:52;;;;;;;10.90;4.88;;;;;;;;;;4993378;28;20056;-68
2022/04/20 00:38:17;;;;;;;12.07;4.68;;;;;;;;;;5006855;28;20126;-68
2022/04/20 00:40:47;;;;;;;9.35;4.40;;;;;;;;;;4980228;28;20073;-68
2022/04/20 00:43:13;;;;;;;10.70;4.68;;;;;;;;;;4978456;28;20030;-68
2022/04/20 00:45:40;;;;;;;9.48;3.95;;;;;;;;;;4981271;28;20110;-67
2022/04/20 00:48:06;;;;;;;13.95;4.53;;;;;;;;;;4978282;28;20050;-68
2022/04/20 00:50:32;;;;;;;8.02;4.40;;;;;;;;;;4980720;28;20114;-68
2022/04/20 00:52:57;;;;;;;17.00;5.30;;;;;;;;;;4978382;28;20074;-67
2022/04/20 00:55:23;;;;;;;14.32;4.88;;;;;;;;;;4988825;28;20453;-68
2022/04/20 00:57:48;;;;;;;14.43;4.35;;;;;;;;;;4994313;28;20034;-68
2022/04/20 01:00:14;;;;;;;9.95;5.55;;;;;;;;;;4989195;28;20494;-67
2022/04/20 01:02:39;;;;;;;12.88;5.80;;;;;;;;;;4997411;28;20037;-68
2022/04/20 01:05:05;;;;;;;10.38;5.25;;;;;;;;;;4996273;28;20037;-67
2022/04/20 01:07:36;;;;;;;12.88;4.95;;;;;;;;;;4994150;28;20034;-68
2022/04/20 01:10:01;;;;;;;15.00;4.95;;;;;;;;;;4997864;28;20051;-67
2022/04/20 01:12:26;;;;;;;9.65;4.93;;;;;;;;;;4991980;28;20035;-68
2022/04/20 01:14:52;;;;;;;11.70;5.25;;;;;;;;;;4992660;28;20062;-68
2022/04/20 01:17:17;;;;;;;14.13;5.65;;;;;;;;;;4977702;28;20045;-68
2022/04/20 01:19:43;;;;;;;11.38;5.03;;;;;;;;;;4976578;28;20093;-68
2022/04/20 01:22:09;;;;;;;13.30;5.55;;;;;;;;;;4977233;28;20034;-67
2022/04/20 01:24:36;;;;;;;16.33;4.95;;;;;;;;;;4976587;28;20526;-68
2022/04/20 01:27:02;;;;;;;16.63;5.38;;;;;;;;;;4994435;28;20030;-67
2022/04/20 01:29:28;;;;;;;21.27;5.63;;;;;;;;;;4996035;28;20034;-68
2022/04/20 01:31:54;;;;;;;12.68;5.60;;;;;;;;;;4993826;28;20034;-68
2022/04/20 01:34:20;;;;;;;16.20;6.15;;;;;;;;;;4992126;28;20035;-68
2022/04/20 01:36:45;;;;;;;18.50;5.65;;;;;;;;;;4988053;28;20045;-68
2022/04/20 01:39:11;;;;;;;15.10;5.82;;;;;;;;;;5011056;28;20440;-67
2022/04/20 01:41:36;;;;;;;13.93;5.50;;;;;;;;;;4992333;28;20442;-67
2022/04/20 01:44:02;;;;;;;19.75;6.63;;;;;;;;;;4994983;28;20057;-67
2022/04/20 01:46:28;;;;;;;16.42;6.32;;;;;;;;;;4982266;28;20729;-67
2022/04/20 01:48:53;;;;;;;26.23;6.70;;;;;;;;;;4979018;28;20467;-68
2022/04/20 01:54:03;;;;;;;17.00;5.63;;;;;;;;;;4995617;28;20053;-68
2022/04/20 01:56:28;;;;;;;16.77;6.03;;;;;;;;;;4985019;28;20039;-67
2022/04/20 01:58:54;;;;;;;21.27;6.78;;;;;;;;;;4975838;28;20117;-67
2022/04/20 02:04:03;;;;;;;19.80;6.75;;;;;;;;;;4978759;28;20065;-67
2022/04/20 02:06:29;;;;;;;17.42;5.50;;;;;;;;;;4977977;28;20466;-67
2022/04/20 02:08:54;;;;;;;16.95;5.82;;;;;;;;;;4986799;28;20577;-68
2022/04/20 02:11:19;;;;;;;14.02;5.72;;;;;;;;;;4990107;28;20026;-68
2022/04/20 02:13:45;;;;;;;17.30;6.38;;;;;;;;;;4975673;28;20043;-68
2022/04/20 02:16:10;;;;;;;16.70;6.88;;;;;;;;;;4985814;28;20100;-68
2022/04/20 02:18:36;;;;;;;24.73;7.47;;;;;;;;;;4995106;28;20037;-67
2022/04/20 02:21:01;;;;;;;22.70;7.50;;;;;;;;;;4994339;28;20121;-68
2022/04/20 02:23:27;;;;;;;32.90;9.65;;;;;;;;;;4994137;28;20034;-68
2022/04/20 02:25:53;;;;;;;46.45;11.38;;;;;;;;;;4990534;28;20431;-68
2022/04/20 02:28:18;;;;;;;40.33;12.23;;;;;;;;;;4976681;28;20050;-68
2022/04/20 02:30:44;;;;;;;46.10;13.65;;;;;;;;;;4990205;28;20475;-68
2022/04/20 02:33:10;;;;;;;37.72;12.63;;;;;;;;;;5000123;28;20034;-67
2022/04/20 02:35:36;;;;;;;34.60;12.55;;;;;;;;;;4994424;28;20538;-67
2022/04/20 02:38:01;;;;;;;41.38;11.18;;;;;;;;;;4991372;28;20113;-67
2022/04/20 02:40:27;;;;;;;43.28;12.73;;;;;;;;;;4993401;28;20118;-68
2022/04/20 02:42:53;;;;;;;33.90;12.07;;;;;;;;;;4991210;28;20050;-67
2022/04/20 02:45:19;;;;;;;34.03;11.43;;;;;;;;;;4978903;28;20531;-67
2022/04/20 02:47:45;;;;;;;37.53;12.43;;;;;;;;;;4990660;28;20029;-68
2022/04/20 02:50:10;;;;;;;46.10;11.93;;;;;;;;;;4987830;28;20129;-67
2022/04/20 02:52:35;;;;;;;37.95;11.63;;;;;;;;;;4992321;28;20096;-67
2022/04/20 02:55:01;;;;;;;33.15;10.82;;;;;;;;;;4978890;28;20118;-68
2022/04/20 02:57:26;;;;;;;34.95;10.55;;;;;;;;;;4992021;28;20042;-68
2022/04/20 02:59:52;;;;;;;42.40;11.50;;;;;;;;;;4994333;28;20331;-67
2022/04/20 03:02:17;;;;;;;34.42;9.68;;;;;;;;;;4985756;28;20027;-68
2022/04/20 03:04:43;;;;;;;47.15;11.63;;;;;;;;;;4993636;28;20042;-68
2022/04/20 03:07:08;;;;;;;45.05;11.65;;;;;;;;;;4992409;28;20039;-67
2022/04/20 03:09:34;;;;;;;42.47;11.05;;;;;;;;;;4992170;28;20055;-68
2022/04/20 03:11:59;;;;;;;33.63;11.00;;;;;;;;;;4996115;28;20105;-68
2022/04/20 03:14:24;;;;;;;41.80;13.18;;;;;;;;;;4974740;28;20030;-67
2022/04/20 03:16:50;;;;;;;45.50;12.50;;;;;;;;;;4989588;28;20081;-67
2022/04/20 03:19:15;;;;;;;44.45;12.93;;;;;;;;;;4993725;28;20034;-68
2022/04/20 03:21:41;;;;;;;39.00;11.63;;;;;;;;;;4992283;28;20045;-67
2022/04/20 03:24:06;;;;;;;36.92;12.70;;;;;;;;;;4992219;28;20036;-68
2022/04/20 03:26:32;;;;;;;41.15;12.70;;;;;;;;;;4992332;28;20367;-68
2022/04/20 03:28:57;;;;;;;40.35;13.27;;;;;;;;;;4993815;28;20042;-68
2022/04/20 03:31:23;;;;;;;38.97;12.75;;;;;;;;;;4992205;28;20115;-68
2022/04/20 03:33:48;;;;;;;38.97;12.35;;;;;;;;;;4979817;28;20125;-68
2022/04/20 03:36:14;;;;;;;41.90;12.70;;;;;;;;;;4975488;28;20093;-68
2022/04/20 03:38:39;;;;;;;47.53;12.95;;;;;;;;;;4977511;28;20386;-68
2022/04/20 03:41:05;;;;;;;36.47;11.85;;;;;;;;;;5007829;28;20035;-67
2022/04/20 03:43:31;;;;;;;42.00;13.18;;;;;;;;;;4993070;28;20054;-68
2022/04/20 03:45:56;;;;;;;48.35;14.35;;;;;;;;;;4983859;28;20019;-68
2022/04/20 03:48:22;;;;;;;40.42;13.43;;;;;;;;;;4993171;28;20440;-68
2022/04/20 03:50:48;;;;;;;46.53;13.68;;;;;;;;;;4974884;28;20043;-67
2022/04/20 03:53:13;;;;;;;43.25;14.38;;;;;;;;;;4975051;28;20030;-68
2022/04/20 03:55:39;;;;;;;39.80;13.48;;;;;;;;;;4991229;28;20041;-68
2022/04/20 03:58:05;;;;;;;43.30;13.85;;;;;;;;;;4992196;28;20500;-68
2022/04/20 04:00:31;;;;;;;51.03;15.32;;;;;;;;;;4993823;28;20034;-67
2022/04/20 04:02:57;;;;;;;55.03;13.25;;;;;;;;;;4985283;28;20378;-68
2022/04/20 04:05:22;;;;;;;51.50;14.85;;;;;;;;;;4974249;28;20039;-68
2022/04/20 04:07:48;;;;;;;45.85;13.98;;;;;;;;;;4990206;28;20026;-68
2022/04/20 04:10:13;;;;;;;45.50;13.88;;;;;;;;;;4990153;28;20469;-68
2022/04/20 04:12:39;;;;;;;38.33;14.35;;;;;;;;;;4986378;28;20031;-67
2022/04/20 04:15:06;;;;;;;43.33;12.88;;;;;;;;;;4976160;28;20101;-67
2022/04/20 04:17:32;;;;;;;47.92;13.38;;;;;;;;;;4978719;28;20047;-68
2022/04/20 04:19:57;;;;;;;42.47;13.50;;;;;;;;;;4978929;28;20544;-68
2022/04/20 04:22:23;;;;;;;37.58;12.85;;;;;;;;;;4978877;28;20047;-67
2022/04/20 04:24:49;;;;;;;46.13;13.95;;;;;;;;;;4986068;28;20040;-68
2022/04/20 04:27:15;;;;;;;47.75;13.68;;;;;;;;;;4995466;28;20162;-68
2022/04/20 04:29:40;;;;;;;54.70;14.52;;;;;;;;;;4996225;28;20101;-68
2022/04/20 04:32:06;;;;;;;40.67;13.52;;;;;;;;;;4981632;28;20039;-68
2022/04/20 04:34:32;;;;;;;52.60;13.77;;;;;;;;;;4996963;28;20042;-67
2022/04/20 04:36:58;;;;;;;41.17;12.38;;;;;;;;;;4995183;28;20026;-67
2022/04/20 04:39:28;;;;;;;56.53;15.70;;;;;;;;;;4995556;28;20117;-68
2022/04/20 04:41:54;;;;;;;65.50;15.05;;;;;;;;;;4988567;28;20386;-68
2022/04/20 04:44:20;;;;;;;41.47;13.85;;;;;;;;;;4982312;28;20037;-68
2022/04/20 04:49:30;;;;;;;39.58;12.20;;;;;;;;;;4977833;28;20045;-68
2022/04/20 04:51:56;;;;;;;39.70;12.88;;;;;;;;;;4978005;28;20394;-68
2022/04/20 04:54:22;;;;;;;41.47;13.45;;;;;;;;;;4980104;28;20100;-67
2022/04/20 04:56:47;;;;;;;41.30;12.98;;;;;;;;;;4994623;28;20463;-67
2022/04/20 04:59:13;;;;;;;46.55;12.43;;;;;;;;;;5010894;28;20038;-68
2022/04/20 05:01:38;;;;;;;46.38;14.02;;;;;;;;;;5009673;28;20038;-68
2022/04/20 05:04:05;;;;;;;46.33;13.68;;;;;;;;;;4980757;28;20039;-68
2022/04/20 05:06:30;;;;;;;41.45;13.70;;;;;;;;;;4980337;28;20372;-68
2022/04/20 05:08:56;;;;;;;57.45;13.82;;;;;;;;;;4996273;28;20057;-67
2022/04/20 05:11:21;;;;;;;47.13;12.88;;;;;;;;;;4999033;28;20111;-67
2022/04/20 05:13:46;;;;;;;48.55;13.48;;;;;;;;;;4976884;28;20038;-68
2022/04/20 05:16:12;;;;;;;40.17;12.05;;;;;;;;;;4986686;28;20046;-67
2022/04/20 05:18:38;;;;;;;42.28;12.45;;;;;;;;;;4996228;28;20046;-67
2022/04/20 05:21:03;;;;;;;34.95;12.02;;;;;;;;;;4995111;28;20038;-67
2022/04/20 05:23:28;;;;;;;44.75;12.25;;;;;;;;;;4995626;28;20035;-67
2022/04/20 05:25:54;;;;;;;44.15;12.25;;;;;;;;;;4984118;28;20038;-68
2022/04/20 05:28:19;;;;;;;37.00;11.73;;;;;;;;;;4976780;28;20070;-67
2022/04/20 05:30:45;;;;;;;48.63;12.43;;;;;;;;;;4977347;28;20097;-67
2022/04/20 05:33:11;;;;;;;43.50;11.27;;;;;;;;;;4985837;28;20497;-67
2022/04/20 05:35:37;;;;;;;34.15;10.45;;;;;;;;;;4996004;28;20104;-68
2022/04/20 05:43:30;;;;;;;33.40;9.85;;;;;;;;;;4995093;28;20116;-67
2022/04/20 05:45:55;;;;;;;41.10;10.30;;;;;;;;;;4993776;28;20463;-68
2022/04/20 05:48:21;;;;;;;40.92;10.82;;;;;;;;;;4993846;28;20130;-67
2022/04/20 05:50:46;;;;;;;46.33;10.85;;;;;;;;;;4993872;28;20026;-68
2022/04/20 05:53:12;;;;;;;39.97;11.23;;;;;;;;;;4993845;28;20056;-67
2022/04/20 05:55:37;;;;;;;32.20;9.85;;;;;;;;;;4989475;28;20039;-68
2022/04/20 05:58:03;;;;;;;33.17;9.60;;;;;;;;;;4976889;28;20041;-67
2022/04/20 06:00:28;;;;;;;27.65;9.90;;;;;;;;;;4980053;28;20458;-68
2022/04/20 06:02:55;;;;;;;27.65;9.55;;;;;;;;;;4987113;28;20070;-67
2022/04/20 06:05:21;;;;;;;26.83;9.88;;;;;;;;;;4975830;28;20077;-67
2022/04/20 06:07:47;;;;;;;30.42;9.00;;;;;;;;;;4976480;28;20495;-68
2022/04/20 06:10:13;;;;;;;28.55;8.82;;;;;;;;;;4979734;28;20046;-68
2022/04/20 06:12:39;;;;;;;22.20;9.05;;;;;;;;;;4976534;28;20121;-68
2022/04/20 06:15:06;;;;;;;20.48;8.25;;;;;;;;;;4976944;28;20456;-68
2022/04/20 06:17:31;;;;;;;23.83;8.50;;;;;;;;;;4976652;28;20042;-68
2022/04/20 06:19:57;;;;;;;18.30;7.05;;;;;;;;;;4976526;28;20041;-68
2022/04/20 06:22:23;;;;;;;24.08;7.07;;;;;;;;;;4976754;28;20027;-68
2022/04/20 06:24:48;;;;;;;16.65;6.63;;;;;;;;;;4975902;28;20039;-68
2022/04/20 06:27:13;;;;;;;21.83;6.25;;;;;;;;;;4976971;28;20034;-68
2022/04/20 06:29:39;;;;;;;24.52;6.90;;;;;;;;;;4983439;28;20045;-68
2022/04/20 06:32:06;;;;;;;15.40;7.15;;;;;;;;;;4979751;28;20042;-68
2022/04/20 06:34:32;;;;;;;17.83;7.10;;;;;;;;;;4977737;28;20035;-68
2022/04/20 06:36:57;;;;;;;20.95;6.80;;;;;;;;;;4994846;28;20414;-68
2022/04/20 06:39:23;;;;;;;12.73;6.78;;;;;;;;;;4993881;28;20038;-68
2022/04/20 06:41:48;;;;;;;12.05;6.90;;;;;;;;;;4995775;28;20053;-68
2022/04/20 06:44:14;;;;;;;13.57;7.25;;;;;;;;;;4993328;28;20034;-68
2022/04/20 06:46:39;;;;;;;12.05;7.03;;;;;;;;;;4992638;28;20030;-68
2022/04/20 06:49:06;;;;;;;12.68;6.70;;;;;;;;;;4990607;28;20040;-68
2022/04/20 06:58:31;;;;;;;15.65;6.90;;;;;;;;;;4979203;28;20030;-68
2022/04/20 06:59:44;;;;;;;16.02;6.40;;;;;;;;;;4983855;28;20406;-68
2022/04/20 07:02:09;;;;;;;14.73;6.50;;;;;;;;;;4977864;28;20039;-68
2022/04/20 07:04:35;;;;;;;14.10;6.75;;;;;;;;;;4981285;28;20085;-69
2022/04/20 07:07:00;;;;;;;11.68;6.55;;;;;;;;;;4987022;28;20038;-68
2022/04/20 07:09:26;;;;;;;10.38;6.32;;;;;;;;;;4974644;28;20050;-68
2022/04/20 07:11:51;;;;;;;10.98;6.40;;;;;;;;;;5000141;28;20069;-68
2022/04/20 07:14:16;;;;;;;11.57;5.88;;;;;;;;;;4988976;28;20036;-68
2022/04/20 07:16:42;;;;;;;12.93;7.63;;;;;;;;;;4974976;28;20035;-69
2022/04/20 07:19:07;;;;;;;11.18;7.68;;;;;;;;;;4980787;28;20097;-68
2022/04/20 07:21:33;;;;;;;12.02;6.72;;;;;;;;;;4994435;28;20030;-68
2022/04/20 07:23:59;;;;;;;15.13;7.30;;;;;;;;;;4994193;28;20026;-68
2022/04/20 07:26:26;;;;;;;17.30;8.20;;;;;;;;;;4993949;28;20386;-68
2022/04/20 07:28:51;;;;;;;14.60;8.13;;;;;;;;;;4994215;28;20038;-68
2022/04/20 07:31:17;;;;;;;13.70;8.07;;;;;;;;;;4988030;28;20058;-68
2022/04/20 07:33:42;;;;;;;14.18;8.15;;;;;;;;;;4974531;28;20040;-69
2022/04/20 07:36:08;;;;;;;15.63;7.82;;;;;;;;;;4974740;28;20035;-68
2022/04/20 07:38:33;;;;;;;13.68;8.68;;;;;;;;;;4974743;28;20062;-68
2022/04/20 07:40:58;;;;;;;17.08;8.60;;;;;;;;;;4974657;28;20043;-67
2022/04/20 07:43:24;;;;;;;15.27;8.65;;;;;;;;;;4974565;28;20447;-66
2022/04/20 07:45:49;;;;;;;15.18;8.48;;;;;;;;;;4974584;28;20041;-67
2022/04/20 07:48:15;;;;;;;15.88;8.88;;;;;;;;;;4984274;28;20042;-67
2022/04/20 07:50:40;;;;;;;13.63;8.50;;;;;;;;;;4979043;28;20122;-67
2022/04/20 07:53:07;;;;;;;13.52;8.10;;;;;;;;;;4991795;28;20045;-67
2022/04/20 07:55:34;;;;;;;17.83;8.60;;;;;;;;;;4990154;28;20471;-67
2022/04/20 07:58:01;;;;;;;16.30;9.23;;;;;;;;;;4987778;28;20036;-68
2022/04/20 08:00:27;;;;;;;17.50;8.95;;;;;;;;;;4989890;28;20125;-67
2022/04/20 08:03:25;;;;;;;15.93;9.63;;;;;;;;;;4995779;28;20042;-67
2022/04/20 08:05:53;;;;;;;17.35;8.02;;;;;;;;;;4956069;28;20046;-67
2022/04/20 08:08:20;;;;;;;17.08;9.43;;;;;;;;;;4993608;28;20049;-67
2022/04/20 08:10:46;;;;;;;16.35;8.80;;;;;;;;;;4991073;28;20085;-67
2022/04/20 08:15:56;;;;;;;18.13;9.48;;;;;;;;;;4992725;28;20054;-67
2022/04/20 08:18:22;;;;;;;16.67;8.98;;;;;;;;;;4993353;28;20418;-67
2022/04/20 08:20:47;;;;;;;15.02;9.07;;;;;;;;;;4997331;28;20039;-67
2022/04/20 08:23:14;;;;;;;17.15;9.02;;;;;;;;;;4995285;28;20061;-67
2022/04/20 08:25:39;;;;;;;16.63;9.82;;;;;;;;;;4974094;28;20030;-67
2022/04/20 08:28:06;;;;;;;19.83;10.30;;;;;;;;;;4993566;28;20054;-67
2022/04/20 08:30:32;;;;;;;16.00;9.15;;;;;;;;;;4992635;28;20034;-67
2022/04/20 08:32:58;;;;;;;16.63;9.68;;;;;;;;;;4993051;28;20022;-67
2022/04/20 08:35:23;;;;;;;22.25;10.18;;;;;;;;;;4993985;28;20038;-67
2022/04/20 08:37:49;;;;;;;14.98;8.95;;;;;;;;;;4993639;28;20026;-67
2022/04/20 08:40:14;;;;;;;17.08;10.20;;;;;;;;;;4993443;28;20046;-67
2022/04/20 08:42:40;;;;;;;19.55;11.25;;;;;;;;;;4993539;28;20093;-67
2022/04/20 08:45:06;;;;;;;14.63;9.55;;;;;;;;;;4987727;28;20032;-67
2022/04/20 08:47:36;;;;;;;14.43;9.50;;;;;;;;;;4987240;28;20066;-68
2022/04/20 08:50:03;;;;;;;18.30;10.50;;;;;;;;;;4992496;28;20516;-68
2022/04/20 08:52:38;;;;;;;14.38;7.70;;;;;;;;;;4993199;28;20058;-67
2022/04/20 08:55:04;;;;;;;18.05;11.07;;;;;;;;;;4992698;28;20037;-67
2022/04/20 08:57:32;;;;;;;20.05;10.73;;;;;;;;;;4992923;28;20496;-67
2022/04/20 08:59:58;;;;;;;16.73;10.73;;;;;;;;;;4993088;28;20034;-68
2022/04/20 09:02:24;;;;;;;19.75;11.05;;;;;;;;;;4989377;28;20972;-67
2022/04/20 09:04:50;;;;;;;19.35;10.77;;;;;;;;;;5007660;28;20125;-67
2022/04/20 09:07:16;;;;;;;20.85;9.50;;;;;;;;;;4992757;28;20088;-67
2022/04/20 09:09:42;;;;;;;19.15;11.02;;;;;;;;;;4987830;28;20093;-68
2022/04/20 09:12:18;;;;;;;19.38;10.15;;;;;;;;;;5017473;28;20042;-67
2022/04/20 09:14:47;;;;;;;17.67;10.20;;;;;;;;;;5006068;28;20061;-67
2022/04/20 09:17:13;;;;;;;16.40;11.02;;;;;;;;;;4992379;28;20062;-69
2022/04/20 09:19:39;;;;;;;18.42;10.82;;;;;;;;;;4991387;28;20037;-68
2022/04/20 09:22:57;;;;;;;19.27;10.98;;;;;;;;;;4992740;28;20957;-67
2022/04/20 09:25:29;;;;;;;20.63;9.60;;;;;;;;;;4951866;29;20434;-67
2022/04/20 09:27:55;;;;;;;16.98;11.38;;;;;;;;;;4941099;29;20063;-67
2022/04/20 09:30:20;;;;;;;18.98;10.30;;;;;;;;;;4976079;28;20250;-68
2022/04/20 09:32:47;;;;;;;18.00;9.00;;;;;;;;;;4978628;28;20031;-67
2022/04/20 09:35:15;;;;;;;17.85;9.45;;;;;;;;;;4989398;28;20033;-67
2022/04/20 09:37:43;;;;;;;20.38;10.88;;;;;;;;;;4988862;28;20053;-68
2022/04/20 09:40:14;;;;;;;21.55;10.20;;;;;;;;;;5007177;28;20049;-67
2022/04/20 09:43:02;;;;;;;19.23;10.77;;;;;;;;;;4991319;28;20030;-68
2022/04/20 09:45:27;;;;;;;17.73;10.50;;;;;;;;;;4988573;28;20497;-68
2022/04/20 09:50:37;;;;;;;15.75;10.48;;;;;;;;;;4990380;28;20101;-67
2022/04/20 09:53:07;;;;;;;16.65;9.68;;;;;;;;;;5007395;28;20030;-68
2022/04/20 09:55:36;;;;;;;16.80;11.00;;;;;;;;;;4975775;28;20397;-68
2022/04/20 09:58:19;;;;;;;21.02;10.65;;;;;;;;;;4992268;28;20023;-70
2022/04/20 10:00:49;;;;;;;18.38;10.73;;;;;;;;;;4991786;28;20078;-68
2022/04/20 10:03:34;;;;;;;18.30;10.10;;;;;;;;;;4990084;28;20046;-67
2022/04/20 10:06:00;;;;;;;18.15;11.10;;;;;;;;;;4991908;28;20046;-67
2022/04/20 10:08:26;;;;;;;18.08;11.13;;;;;;;;;;4991607;28;20038;-67
2022/04/20 10:10:54;;;;;;;19.58;11.43;;;;;;;;;;4991577;28;20042;-67
2022/04/20 10:13:20;;;;;;;22.90;11.80;;;;;;;;;;4989787;28;20050;-67
2022/04/20 10:16:05;;;;;;;18.88;10.38;;;;;;;;;;4990106;28;20022;-68
2022/04/20 10:18:34;;;;;;;22.08;11.32;;;;;;;;;;4986857;28;20515;-67
2022/04/20 10:21:02;;;;;;;18.67;10.57;;;;;;;;;;5001788;28;20560;-67
2022/04/20 10:23:29;;;;;;;18.17;10.52;;;;;;;;;;4990628;28;20030;-67
2022/04/20 10:25:55;;;;;;;19.40;11.05;;;;;;;;;;4991213;28;20049;-68
2022/04/20 10:28:27;;;;;;;18.75;11.52;;;;;;;;;;4985763;28;20085;-67
2022/04/20 10:30:59;;;;;;;19.13;11.07;;;;;;;;;;4990823;28;20045;-67
2022/04/20 10:33:25;;;;;;;18.80;9.98;;;;;;;;;;4990845;28;20042;-68
2022/04/20 10:36:02;;;;;;;18.13;10.88;;;;;;;;;;4990459;28;20053;-68
2022/04/20 10:38:32;;;;;;;21.40;10.40;;;;;;;;;;4971910;28;20042;-67
2022/04/20 10:41:03;;;;;;;16.90;9.77;;;;;;;;;;4990255;28;20038;-67
2022/04/20 10:43:30;;;;;;;19.55;10.73;;;;;;;;;;4990648;28;20050;-67
2022/04/20 10:46:11;;;;;;;16.30;10.05;;;;;;;;;;4988783;28;20046;-67
2022/04/20 10:48:58;;;;;;;19.20;10.68;;;;;;;;;;4978949;28;20104;-67
2022/04/20 10:51:35;;;;;;;20.85;10.63;;;;;;;;;;4987185;28;20034;-67
2022/04/20 10:54:23;;;;;;;19.17;11.30;;;;;;;;;;5003739;28;20053;-68
2022/04/20 10:56:49;;;;;;;21.48;11.00;;;;;;;;;;4980300;28;20109;-67
2022/04/20 10:59:14;;;;;;;21.88;11.02;;;;;;;;;;4982798;28;20103;-67
2022/04/20 11:02:02;;;;;;;27.70;11.23;;;;;;;;;;4989975;28;20451;-69
2022/04/20 11:04:37;;;;;;;19.38;9.68;;;;;;;;;;4985809;28;20520;-67
2022/04/20 11:07:03;;;;;;;17.80;9.93;;;;;;;;;;4990726;28;20045;-69
2022/04/20 11:09:48;;;;;;;18.85;10.55;;;;;;;;;;4989468;28;20050;-67
2022/04/20 11:21:06;;;;;;;19.77;10.85;;;;;;;;;;4990480;28;20081;-69
2022/04/20 11:23:50;;;;;;;19.30;10.63;;;;;;;;;;4987258;28;20034;-69
2022/04/20 11:26:28;;;;;;;20.90;12.13;;;;;;;;;;4977044;28;20077;-69
2022/04/20 11:28:55;;;;;;;23.08;11.25;;;;;;;;;;4990777;28;20478;-69
2022/04/20 11:31:20;;;;;;;18.90;10.93;;;;;;;;;;4990320;28;20042;-69
2022/04/20 11:33:46;;;;;;;22.42;11.82;;;;;;;;;;5002686;28;20037;-69
2022/04/20 11:36:13;;;;;;;17.85;10.70;;;;;;;;;;4989382;28;20030;-69
2022/04/20 12:01:34;;;;;;;22.00;12.32;;;;;;;;;;5115052;27;20357;-69
2022/04/20 12:04:04;;;;;;;25.75;11.88;;;;;;;;;;5085512;28;20040;-69
2022/04/20 12:06:30;;;;;;;24.52;10.95;;;;;;;;;;5088305;28;20085;-69
2022/04/20 12:08:56;;;;;;;23.50;11.10;;;;;;;;;;5088439;28;20119;-69
2022/04/20 12:11:21;;;;;;;17.58;9.68;;;;;;;;;;5081421;28;20439;-69
2022/04/20 12:13:53;;;;;;;16.55;9.25;;;;;;;;;;5032549;27;66037;-69
2022/04/20 12:16:18;;;;;;;20.20;11.82;;;;;;;;;;5046633;28;20040;-69
2022/04/20 12:18:46;;;;;;;21.92;11.70;;;;;;;;;;5047105;28;20033;-69
2022/04/20 12:21:36;;;;;;;23.45;12.00;;;;;;;;;;5039582;28;20060;-69
2022/04/20 12:24:02;;;;;;;18.77;9.85;;;;;;;;;;5046851;28;20037;-69
2022/04/20 12:26:28;;;;;;;22.48;10.40;;;;;;;;;;5046777;28;20040;-69
2022/04/20 12:29:01;;;;;;;23.13;9.88;;;;;;;;;;5040506;28;20025;-69
2022/04/20 12:31:27;;;;;;;25.73;12.23;;;;;;;;;;5046774;28;20041;-69
2022/04/20 12:34:03;;;;;;;28.73;10.48;;;;;;;;;;5046835;28;20036;-69
2022/04/20 12:36:30;;;;;;;20.55;10.80;;;;;;;;;;5046945;28;20041;-69
2022/04/20 12:38:55;;;;;;;17.15;10.48;;;;;;;;;;5046462;28;20151;-68
2022/04/20 12:41:37;;;;;;;19.60;10.23;;;;;;;;;;5046887;28;20112;-69
2022/04/20 12:44:36;;;;;;;21.42;9.25;;;;;;;;;;5045984;28;20091;-70
2022/04/20 12:47:08;;;;;;;18.05;8.95;;;;;;;;;;5040167;28;20045;-69
2022/04/20 12:49:41;;;;;;;16.65;8.80;;;;;;;;;;5045099;28;20033;-69
2022/04/20 12:52:13;;;;;;;18.63;9.70;;;;;;;;;;5049934;28;20032;-69
2022/04/20 12:54:39;;;;;;;20.30;10.50;;;;;;;;;;5040181;28;20041;-70
2022/04/20 13:02:58;;;;;;;16.67;9.10;;;;;;;;;;5035405;28;20047;-69
2022/04/20 13:05:24;;;;;;;14.73;8.90;;;;;;;;;;5034718;28;20037;-69
2022/04/20 13:07:50;;;;;;;22.88;9.35;;;;;;;;;;5038700;28;20098;-69
2022/04/20 13:10:16;;;;;;;16.63;8.93;;;;;;;;;;5028664;28;20631;-69
2022/04/20 13:12:52;;;;;;;16.60;9.57;;;;;;;;;;5024673;28;20049;-69
2022/04/20 13:15:18;;;;;;;18.05;8.65;;;;;;;;;;5015128;28;20025;-69
2022/04/20 13:17:44;;;;;;;19.83;9.65;;;;;;;;;;5026036;28;20537;-69
2022/04/20 13:20:09;;;;;;;13.27;8.32;;;;;;;;;;5020591;28;20485;-69
2022/04/20 13:22:35;;;;;;;19.58;9.10;;;;;;;;;;5017669;28;21811;-69
2022/04/20 13:27:57;;;;;;;;;;;;;;;;;;5021187;28;20106;-69
2022/04/20 13:30:24;;;;;;;16.17;8.20;;;;;;;;;;5005110;28;19924;-69
2022/04/20 13:32:50;;;;;;;12.85;8.20;;;;;;;;;;5021679;28;20515;-69
2022/04/20 13:35:15;;;;;;;16.05;7.68;;;;;;;;;;5016079;28;20033;-68
2022/04/20 13:37:41;;;;;;;15.52;7.70;;;;;;;;;;5017074;28;20033;-69
2022/04/20 13:40:06;;;;;;;16.40;8.40;;;;;;;;;;5001875;28;20045;-69
2022/04/20 13:42:32;;;;;;;14.60;7.88;;;;;;;;;;5010287;28;20124;-69
2022/04/20 13:44:57;;;;;;;16.83;6.72;;;;;;;;;;5024598;28;20041;-69
2022/04/20 13:47:23;;;;;;;13.93;7.53;;;;;;;;;;5028471;28;20124;-69
2022/04/20 13:49:48;;;;;;;14.05;6.82;;;;;;;;;;5020781;28;20033;-69
2022/04/20 13:52:14;;;;;;;15.70;7.05;;;;;;;;;;5024742;28;20033;-70
2022/04/20 13:54:40;;;;;;;10.45;5.53;;;;;;;;;;5018551;28;20037;-69
2022/04/20 13:57:05;;;;;;;11.23;6.03;;;;;;;;;;5014164;28;20465;-69
2022/04/20 13:59:30;;;;;;;9.57;6.13;;;;;;;;;;5021843;28;20060;-69
2022/04/20 14:01:56;;;;;;;15.75;6.15;;;;;;;;;;5016903;28;20030;-69
2022/04/20 14:04:21;;;;;;;12.30;6.25;;;;;;;;;;5016843;28;20069;-69
2022/04/20 14:06:46;;;;;;;9.65;5.38;;;;;;;;;;5017740;28;20037;-69
2022/04/20 14:09:12;;;;;;;10.35;5.60;;;;;;;;;;5018252;28;20032;-69
2022/04/20 14:11:37;;;;;;;15.02;6.15;;;;;;;;;;5020680;28;20824;-68
2022/04/20 14:14:03;;;;;;;11.48;5.90;;;;;;;;;;5011377;28;20069;-68
2022/04/20 14:16:31;;;;;;;11.48;5.90;;;;;;;;;;5010671;28;20033;-68
2022/04/20 14:18:56;;;;;;;8.70;4.78;;;;;;;;;;4998185;28;20069;-69
2022/04/20 14:21:22;;;;;;;14.68;5.38;;;;;;;;;;5025368;28;20057;-69
2022/04/20 14:23:48;;;;;;;9.75;5.60;;;;;;;;;;5019367;28;20041;-69
2022/04/20 14:34:25;;;;;;;;;;;;;;;;;;5009702;28;20060;-69
2022/04/20 14:36:50;;;;;;;10.05;4.95;;;;;;;;;;5011292;28;20361;-69
2022/04/20 14:39:15;;;;;;;12.45;5.22;;;;;;;;;;5003552;28;20464;-69
2022/04/20 14:41:41;;;;;;;12.50;5.20;;;;;;;;;;5010681;28;20029;-68
2022/04/20 14:44:06;;;;;;;9.48;4.57;;;;;;;;;;4996031;28;20059;-69
2022/04/20 14:46:31;;;;;;;8.65;4.45;;;;;;;;;;5009797;28;20501;-69
2022/04/20 14:48:57;;;;;;;9.35;5.20;;;;;;;;;;5006955;28;20049;-69
2022/04/20 14:51:23;;;;;;;10.63;5.57;;;;;;;;;;5010054;28;20113;-69
2022/04/20 14:53:49;;;;;;;10.13;5.63;;;;;;;;;;5006575;28;20034;-69
2022/04/20 14:56:15;;;;;;;8.00;4.72;;;;;;;;;;5017437;28;20034;-69
2022/04/20 14:58:40;;;;;;;11.25;5.28;;;;;;;;;;5013640;28;20370;-69
2022/04/20 15:01:06;;;;;;;8.02;4.50;;;;;;;;;;5009435;28;20050;-69
2022/04/20 15:03:31;;;;;;;8.68;4.72;;;;;;;;;;5003433;28;20362;-69
2022/04/20 15:05:57;;;;;;;9.43;4.90;;;;;;;;;;5008781;28;20473;-69
2022/04/20 15:08:22;;;;;;;8.73;4.90;;;;;;;;;;5015007;28;20606;-69
2022/04/20 15:10:50;;;;;;;15.93;5.72;;;;;;;;;;5017036;28;20064;-69
2022/04/20 15:13:16;;;;;;;11.98;5.30;;;;;;;;;;5018438;28;20053;-69
2022/04/20 15:15:41;;;;;;;9.98;4.47;;;;;;;;;;5022701;28;20034;-69
2022/04/20 15:18:07;;;;;;;9.15;5.15;;;;;;;;;;5013675;28;20105;-69
2022/04/20 15:20:32;;;;;;;8.25;4.78;;;;;;;;;;5010603;28;20338;-68
2022/04/20 15:22:58;;;;;;;10.75;4.05;;;;;;;;;;5025365;28;20116;-69
2022/04/20 15:25:24;;;;;;;11.88;5.45;;;;;;;;;;5004691;28;20053;-69
2022/04/20 15:27:49;;;;;;;9.43;4.28;;;;;;;;;;5007156;28;20041;-69
2022/04/20 15:30:15;;;;;;;11.68;4.75;;;;;;;;;;5010242;28;20382;-69
2022/04/20 15:32:41;;;;;;;9.82;4.45;;;;;;;;;;5009200;28;20117;-68
2022/04/20 15:35:09;;;;;;;9.52;4.53;;;;;;;;;;5009248;28;20041;-68
2022/04/20 15:37:35;;;;;;;9.95;4.25;;;;;;;;;;5009983;28;20123;-69
2022/04/20 15:40:01;;;;;;;7.90;4.72;;;;;;;;;;5009125;28;20257;-69